Time;durP1;ratioP1;P1;durP2;ratioP2;P2;SDS_P1;SDS_P2;PMS_P1;PMS_P2;Temp;Humidity;BMP_temperature;BMP_pressure;BME280_temperature;BME280_humidity;BME280_pressure;Samples;Min_cycle;Max_cycle;Signal;HPM_P1;HPM_P2
2021/05/26 00:00:49;;;;;;;2.45;1.77;;;;;;;19.61;58.81;98988.50;5111264;28;20032;-75
2021/05/26 00:03:14;;;;;;;1.80;1.70;;;;;;;19.62;58.72;98997.44;5110548;28;20501;-76
2021/05/26 00:05:40;;;;;;;2.42;1.80;;;;;;;19.62;58.52;98994.72;5111483;28;20039;-75
2021/05/26 00:08:05;;;;;;;1.77;1.67;;;;;;;19.63;58.42;98991.69;5111834;28;20023;-76
2021/05/26 00:10:30;;;;;;;1.67;1.55;;;;;;;19.62;58.19;99006.38;5111913;28;20665;-75
2021/05/26 00:12:56;;;;;;;2.45;1.95;;;;;;;19.60;58.30;98996.97;5097508;28;20383;-76
2021/05/26 00:15:21;;;;;;;1.95;1.85;;;;;;;19.61;58.38;98998.56;5091430;28;20097;-76
2021/05/26 00:17:47;;;;;;;1.70;1.60;;;;;;;19.61;58.56;98999.34;5091240;28;20016;-76
2021/05/26 00:20:12;;;;;;;1.83;1.73;;;;;;;19.60;58.84;98992.34;5107234;28;20114;-76
2021/05/26 00:22:38;;;;;;;1.95;1.80;;;;;;;19.59;59.17;98984.53;5111115;28;20026;-76
2021/05/26 00:25:05;;;;;;;3.95;2.20;;;;;;;19.57;59.33;98984.88;5109630;28;20027;-76
2021/05/26 00:27:30;;;;;;;2.60;2.40;;;;;;;19.54;59.81;98984.78;5111426;28;20096;-78
2021/05/26 00:29:56;;;;;;;2.17;1.98;;;;;;;19.58;60.22;98982.97;5110843;28;20027;-77
2021/05/26 00:32:21;;;;;;;3.97;2.13;;;;;;;19.57;60.37;98984.13;5110876;28;20097;-77
2021/05/26 00:34:47;;;;;;;2.53;2.20;;;;;;;19.55;60.41;98978.22;5110130;28;20114;-78
2021/05/26 00:37:12;;;;;;;5.63;2.58;;;;;;;19.52;60.54;98985.91;5110836;28;20531;-78
2021/05/26 00:39:37;;;;;;;3.85;2.53;;;;;;;19.55;60.43;98980.94;5110303;28;20016;-79
2021/05/26 00:42:03;;;;;;;2.75;2.55;;;;;;;19.52;60.48;98977.75;5113705;28;20023;-78
2021/05/26 00:44:29;;;;;;;2.85;2.42;;;;;;;19.52;60.82;98975.03;5114331;28;20031;-77
2021/05/26 00:46:54;;;;;;;4.07;2.95;;;;;;;19.52;60.76;98972.34;5115754;28;20016;-76
2021/05/26 00:49:21;;;;;;;2.75;2.20;;;;;;;19.52;60.90;98964.19;5114235;28;20398;-76
2021/05/26 00:51:47;;;;;;;4.97;2.67;;;;;;;19.56;60.69;98974.38;5114760;28;20091;-75
2021/05/26 00:54:12;;;;;;;3.03;2.33;;;;;;;19.55;60.37;98968.16;5114604;28;20471;-75
2021/05/26 00:56:38;;;;;;;2.75;2.53;;;;;;;19.53;60.05;98965.00;5114981;28;20465;-76
2021/05/26 00:59:06;;;;;;;3.13;2.50;;;;;;;19.49;59.79;98962.19;5115143;28;20102;-76
2021/05/26 01:01:32;;;;;;;2.88;2.67;;;;;;;19.50;59.95;98965.66;5107010;28;20031;-76
2021/05/26 01:03:58;;;;;;;2.60;2.40;;;;;;;19.47;59.90;98966.31;5113773;28;20073;-76
2021/05/26 01:06:24;;;;;;;2.25;2.05;;;;;;;19.45;59.50;98968.59;5115076;28;20035;-75
2021/05/26 01:08:49;;;;;;;3.95;2.50;;;;;;;19.41;59.47;98973.91;5113645;28;20150;-75
2021/05/26 01:11:15;;;;;;;2.72;2.28;;;;;;;19.39;60.04;98967.25;5114094;28;20024;-76
2021/05/26 01:13:40;;;;;;;3.20;3.00;;;;;;;19.34;60.30;98969.03;5115121;28;20492;-76
2021/05/26 01:16:06;;;;;;;3.28;2.97;;;;;;;19.31;60.82;98964.28;5114822;28;20035;-75
2021/05/26 01:18:34;;;;;;;4.72;4.22;;;;;;;19.29;61.33;98965.75;5114658;28;20104;-75
2021/05/26 01:21:03;;;;;;;3.80;3.47;;;;;;;19.28;61.53;98969.59;5114691;28;20024;-76
2021/05/26 01:23:28;;;;;;;3.20;2.90;;;;;;;19.22;61.01;98960.09;5114977;28;20019;-76
2021/05/26 01:25:56;;;;;;;3.10;2.75;;;;;;;19.22;61.18;98965.53;5111646;28;20047;-77
2021/05/26 01:28:23;;;;;;;3.28;3.03;;;;;;;19.20;60.83;98972.06;5104699;28;20023;-76
2021/05/26 01:30:49;;;;;;;4.22;3.08;;;;;;;19.14;61.17;98967.19;5100357;28;20023;-75
2021/05/26 01:33:15;;;;;;;2.92;2.70;;;;;;;19.12;61.03;98966.75;5096050;28;20458;-76
2021/05/26 01:35:42;;;;;;;5.30;2.88;;;;;;;19.07;61.28;98973.16;5093011;28;20117;-76
2021/05/26 01:38:29;;;;;;;3.30;3.00;;;;;;;19.04;61.19;98973.81;5093718;28;20024;-76
2021/05/26 01:41:01;;;;;;;3.20;2.45;;;;;;;19.00;60.78;98970.97;5104882;28;20023;-76
2021/05/26 01:43:28;;;;;;;6.03;2.88;;;;;;;18.96;61.18;98970.06;5113916;28;20489;-76
2021/05/26 01:45:53;;;;;;;3.25;2.83;;;;;;;18.91;61.70;98964.88;5097333;28;20020;-78
2021/05/26 01:48:19;;;;;;;3.47;2.88;;;;;;;18.88;61.63;98974.44;5093486;28;20081;-76
2021/05/26 01:50:44;;;;;;;3.13;2.92;;;;;;;18.82;62.11;98964.94;5110277;28;20035;-77
2021/05/26 01:53:10;;;;;;;3.50;3.20;;;;;;;18.83;62.23;98965.69;5113396;28;20019;-77
2021/05/26 01:55:38;;;;;;;3.00;2.78;;;;;;;18.81;61.89;98968.75;5114154;28;20454;-77
2021/05/26 01:58:04;;;;;;;5.60;3.25;;;;;;;18.78;61.62;98963.22;5114086;28;20038;-77
2021/05/26 02:00:29;;;;;;;3.22;2.78;;;;;;;18.76;61.48;98960.84;5115453;28;20023;-75
2021/05/26 02:02:55;;;;;;;5.03;2.85;;;;;;;18.75;60.84;98971.97;5114399;28;20080;-75
2021/05/26 02:05:21;;;;;;;5.95;2.95;;;;;;;18.73;61.23;98972.31;5114325;27;20057;-73
2021/05/26 02:07:47;;;;;;;3.88;3.03;;;;;;;18.70;61.42;98972.97;5112955;28;20370;-75
2021/05/26 02:10:17;;;;;;;4.55;3.03;;;;;;;18.71;61.68;98977.28;5113090;28;20106;-76
2021/05/26 02:12:44;;;;;;;4.32;2.28;;;;;;;18.69;61.31;98979.53;5114045;28;20082;-76
2021/05/26 02:15:12;;;;;;;4.05;3.60;;;;;;;18.66;61.44;98977.47;5113750;28;20085;-77
2021/05/26 02:17:38;;;;;;;6.03;2.88;;;;;;;18.66;61.37;98982.91;5113614;28;20485;-77
2021/05/26 02:20:06;;;;;;;5.00;2.83;;;;;;;18.65;61.39;98981.31;5113677;28;20032;-77
2021/05/26 02:22:33;;;;;;;5.63;3.13;;;;;;;18.62;61.49;98980.06;5111831;28;20378;-77
2021/05/26 02:24:59;;;;;;;3.38;3.08;;;;;;;18.62;60.97;98988.19;5111895;28;20101;-77
2021/05/26 02:27:26;;;;;;;3.28;2.92;;;;;;;18.58;60.84;98989.16;5106658;28;20040;-77
2021/05/26 02:29:51;;;;;;;4.28;2.92;;;;;;;18.53;61.05;98990.97;5113018;28;20054;-77
2021/05/26 02:32:17;;;;;;;2.85;2.55;;;;;;;18.43;60.53;98998.69;5112120;28;20592;-76
2021/05/26 02:34:42;;;;;;;2.97;2.67;;;;;;;18.37;60.66;98990.78;5113551;28;20459;-76
2021/05/26 02:37:08;;;;;;;3.30;2.88;;;;;;;18.37;60.73;98998.88;5113530;28;20096;-76
2021/05/26 02:39:33;;;;;;;3.45;2.95;;;;;;;18.35;60.75;98997.63;5113370;28;20374;-75
2021/05/26 02:41:59;;;;;;;2.50;2.30;;;;;;;18.30;60.74;98997.84;5112800;28;20051;-76
2021/05/26 02:44:24;;;;;;;2.33;2.22;;;;;;;18.27;60.77;98999.25;5111783;28;20035;-76
2021/05/26 02:46:50;;;;;;;3.88;2.85;;;;;;;18.24;61.00;99010.75;5112546;28;20089;-76
2021/05/26 02:49:15;;;;;;;4.03;2.70;;;;;;;18.22;60.73;99016.50;5112583;28;20459;-76
2021/05/26 02:51:41;;;;;;;2.88;2.30;;;;;;;18.21;61.04;99014.91;5112979;28;20627;-76
2021/05/26 02:54:07;;;;;;;3.97;2.25;;;;;;;18.18;60.99;99018.28;5111689;28;20022;-78
2021/05/26 02:56:34;;;;;;;4.43;2.33;;;;;;;18.15;61.15;99020.84;5111959;28;20440;-76
2021/05/26 02:59:00;;;;;;;3.47;2.60;;;;;;;18.15;61.56;99018.94;5111511;28;20024;-77
2021/05/26 03:01:25;;;;;;;2.47;2.28;;;;;;;18.11;61.37;99028.81;5112845;28;20132;-77
2021/05/26 03:03:51;;;;;;;3.42;2.40;;;;;;;18.06;61.72;99018.97;5111152;28;20118;-76
2021/05/26 03:06:16;;;;;;;5.82;2.45;;;;;;;18.07;61.38;99025.97;5113066;28;20019;-75
2021/05/26 03:08:42;;;;;;;3.67;2.50;;;;;;;18.08;61.98;99030.25;5111636;28;20023;-75
2021/05/26 03:11:07;;;;;;;2.65;2.45;;;;;;;18.07;62.09;99027.88;5112608;28;20023;-76
2021/05/26 03:13:33;;;;;;;3.08;2.75;;;;;;;18.11;62.13;99033.44;5112074;28;20100;-76
2021/05/26 03:15:59;;;;;;;3.33;2.92;;;;;;;18.09;62.15;99039.19;5097116;27;20024;-75
2021/05/26 03:18:24;;;;;;;3.15;2.85;;;;;;;18.07;62.37;99038.72;5091879;28;20115;-76
2021/05/26 03:20:50;;;;;;;3.60;2.95;;;;;;;18.05;62.49;99041.75;5092266;28;20034;-76
2021/05/26 03:23:20;;;;;;;2.67;2.47;;;;;;;18.03;62.42;99041.28;5091672;28;20047;-76
2021/05/26 03:25:47;;;;;;;4.60;2.63;;;;;;;18.01;62.75;99034.59;5091737;28;20386;-75
2021/05/26 03:28:16;;;;;;;2.67;2.47;;;;;;;18.07;62.82;99034.09;5091680;28;20016;-77
2021/05/26 03:30:42;;;;;;;3.83;2.80;;;;;;;18.16;63.04;99035.94;5095406;28;20031;-75
2021/05/26 03:33:11;;;;;;;3.08;2.72;;;;;;;18.21;62.68;99030.34;5094674;28;20490;-77
2021/05/26 03:35:37;;;;;;;4.88;3.00;;;;;;;18.32;62.15;99042.41;5096086;28;20390;-78
2021/05/26 03:38:02;;;;;;;4.30;2.97;;;;;;;18.40;61.46;99046.16;5108428;28;20019;-76
2021/05/26 03:40:28;;;;;;;3.78;3.47;;;;;;;18.50;61.65;99042.28;5111706;28;20443;-77
2021/05/26 03:42:53;;;;;;;5.50;3.85;;;;;;;18.67;61.40;99050.28;5112178;28;20035;-77
2021/05/26 03:45:18;;;;;;;6.18;3.13;;;;;;;18.86;60.62;99052.53;5111448;28;20049;-75
2021/05/26 03:47:44;;;;;;;4.10;3.72;;;;;;;18.95;60.34;99049.78;5111907;28;20051;-77
2021/05/26 03:50:13;;;;;;;4.75;3.90;;;;;;;19.10;60.22;99051.06;5111032;28;20501;-76
2021/05/26 03:52:43;;;;;;;5.15;2.92;;;;;;;19.27;60.03;99050.13;5111735;28;20023;-78
2021/05/26 03:55:11;;;;;;;4.07;3.08;;;;;;;19.51;59.23;99049.41;5110271;28;20016;-77
2021/05/26 03:57:38;;;;;;;4.28;3.25;;;;;;;19.72;58.58;99047.75;5110281;28;20517;-75
2021/05/26 04:00:06;;;;;;;4.38;3.42;;;;;;;19.92;58.18;99055.03;5111587;28;20035;-75
2021/05/26 04:02:32;;;;;;;4.55;3.13;;;;;;;20.10;57.38;99054.81;5111811;28;20023;-76
2021/05/26 04:04:57;;;;;;;5.35;3.20;;;;;;;20.37;57.11;99053.31;5111628;28;20432;-76
2021/05/26 04:07:22;;;;;;;3.83;3.35;;;;;;;20.63;55.27;99050.22;5111806;28;20023;-78
2021/05/26 04:09:48;;;;;;;7.32;2.72;;;;;;;20.89;54.16;99051.00;5111764;28;20028;-77
2021/05/26 04:12:13;;;;;;;3.08;2.67;;;;;;;21.15;53.36;99047.03;5111032;28;20024;-78
2021/05/26 04:14:39;;;;;;;6.60;2.97;;;;;;;21.44;53.09;99059.47;5110770;28;20028;-78
2021/05/26 04:17:04;;;;;;;3.22;2.85;;;;;;;21.73;52.97;99052.06;5111405;28;20390;-75
2021/05/26 04:19:30;;;;;;;4.75;2.58;;;;;;;22.14;52.56;99049.16;5111346;28;20031;-75
2021/05/26 04:21:55;;;;;;;5.68;2.97;;;;;;;22.62;51.69;99054.50;5111638;28;20057;-80
2021/05/26 04:24:20;;;;;;;16.20;8.10;;;;;;;23.11;50.33;99051.22;5109856;28;20027;-74
2021/05/26 04:26:46;;;;;;;11.40;5.55;;;;;;;23.54;48.61;99058.66;5110714;28;20502;-78
2021/05/26 04:29:11;;;;;;;3.08;2.65;;;;;;;24.00;47.76;99058.69;5110054;28;20097;-78
2021/05/26 04:31:37;;;;;;;3.47;2.60;;;;;;;24.49;46.88;99059.00;5111543;28;20030;-77
2021/05/26 04:34:02;;;;;;;3.38;2.38;;;;;;;24.90;46.01;99056.41;5109846;28;20027;-78
2021/05/26 04:36:28;;;;;;;4.25;1.73;;;;;;;25.08;43.78;99062.91;5110083;28;20027;-78
2021/05/26 04:38:53;;;;;;;1.92;1.83;;;;;;;25.29;42.02;99050.59;5110136;28;20024;-78
2021/05/26 04:41:18;;;;;;;7.20;2.50;;;;;;;25.31;42.47;99064.69;5109871;28;20402;-78
2021/05/26 04:43:44;;;;;;;3.42;3.13;;;;;;;25.52;42.02;99068.84;5111338;28;20027;-78
2021/05/26 04:46:09;;;;;;;5.50;3.20;;;;;;;25.57;41.83;99068.50;5109730;28;20030;-78
2021/05/26 04:48:35;;;;;;;5.70;3.30;;;;;;;25.67;39.87;99070.56;5109923;28;20023;-77
2021/05/26 04:51:00;;;;;;;6.13;3.80;;;;;;;25.61;41.33;99080.28;5109689;28;20034;-77
2021/05/26 04:53:25;;;;;;;3.65;3.35;;;;;;;25.60;41.89;99084.19;5109594;28;20031;-77
2021/05/26 04:55:51;;;;;;;6.60;5.03;;;;;;;25.53;41.88;99090.38;5109816;28;20122;-78
2021/05/26 04:58:16;;;;;;;7.47;5.30;;;;;;;25.49;42.02;99091.53;5109623;28;20024;-77
2021/05/26 05:00:42;;;;;;;4.78;4.20;;;;;;;25.42;42.35;99089.47;5110066;28;20027;-77
2021/05/26 05:03:08;;;;;;;11.93;6.82;;;;;;;25.24;41.44;99092.78;5109498;28;20068;-77
2021/05/26 05:05:33;;;;;;;16.20;8.85;;;;;;;25.09;42.59;99091.03;5109991;28;20035;-77
2021/05/26 05:08:04;;;;;;;16.38;9.52;;;;;;;25.17;42.68;99097.38;5111275;28;20022;-77
2021/05/26 05:10:29;;;;;;;12.27;7.15;;;;;;;25.33;42.75;99100.72;5111146;28;20027;-78
2021/05/26 05:12:55;;;;;;;6.20;4.30;;;;;;;25.39;42.76;99098.47;5110009;28;20016;-77
2021/05/26 05:15:21;;;;;;;12.82;3.97;;;;;;;25.39;43.55;99101.97;5109672;28;20040;-77
2021/05/26 05:17:47;;;;;;;7.28;4.10;;;;;;;25.36;43.83;99105.41;5109816;28;20458;-77
2021/05/26 05:20:21;;;;;;;6.63;3.50;;;;;;;25.31;43.44;99108.50;5110623;28;20089;-77
2021/05/26 05:22:55;;;;;;;3.88;3.58;;;;;;;25.11;44.01;99099.69;5109699;28;20066;-77
2021/05/26 05:25:22;;;;;;;7.63;2.92;;;;;;;25.06;44.97;99089.03;5110919;28;20032;-78
2021/05/26 05:27:49;;;;;;;3.63;3.33;;;;;;;25.14;45.05;99101.66;5112635;28;20015;-78
2021/05/26 05:30:15;;;;;;;4.10;3.33;;;;;;;25.12;45.17;99092.25;5114400;28;20019;-77
2021/05/26 05:32:40;;;;;;;9.27;4.68;;;;;;;25.34;45.09;99094.06;5113424;28;20030;-77
2021/05/26 05:35:07;;;;;;;4.15;2.88;;;;;;;25.63;45.16;99099.84;5113178;28;20019;-77
2021/05/26 05:37:33;;;;;;;5.77;2.80;;;;;;;25.85;43.98;99092.66;5113385;28;20019;-78
2021/05/26 05:39:59;;;;;;;5.28;2.97;;;;;;;26.13;41.87;99096.00;5114258;28;20085;-77
2021/05/26 05:42:24;;;;;;;4.15;2.10;;;;;;;26.24;40.94;99099.59;5114274;27;20028;-77
2021/05/26 05:44:50;;;;;;;2.83;2.40;;;;;;;26.40;40.54;99104.03;5113042;28;20485;-77
2021/05/26 05:47:15;;;;;;;4.75;2.78;;;;;;;26.58;40.75;99091.22;5112976;28;20032;-77
2021/05/26 05:49:41;;;;;;;2.75;1.95;;;;;;;26.73;39.57;99100.28;5113223;28;20363;-77
2021/05/26 05:52:09;;;;;;;2.25;2.05;;;;;;;26.80;38.86;99103.09;5112853;28;20024;-77
2021/05/26 05:54:35;;;;;;;2.53;1.63;;;;;;;26.80;38.80;99100.38;5113147;28;20016;-76
2021/05/26 05:57:01;;;;;;;4.25;1.90;;;;;;;26.78;38.87;99104.66;5113201;28;20026;-77
2021/05/26 05:59:27;;;;;;;3.42;1.65;;;;;;;26.68;39.53;99098.72;5112746;28;20421;-77
2021/05/26 06:01:52;;;;;;;2.83;1.98;;;;;;;26.67;38.77;99105.38;5112828;28;20019;-79
2021/05/26 06:04:17;;;;;;;1.48;1.38;;;;;;;26.55;37.96;99104.91;5112728;28;20040;-78
2021/05/26 06:06:43;;;;;;;2.40;1.48;;;;;;;26.51;37.54;99108.44;5112892;28;20016;-78
2021/05/26 06:09:08;;;;;;;1.73;1.63;;;;;;;26.46;38.57;99105.25;5112593;28;20378;-79
2021/05/26 06:11:33;;;;;;;2.65;1.90;;;;;;;26.33;38.83;99105.56;5112694;28;20027;-79
2021/05/26 06:14:05;;;;;;;1.80;1.70;;;;;;;26.18;40.15;99101.13;5112845;28;20016;-79
2021/05/26 06:16:34;;;;;;;1.77;1.67;;;;;;;26.26;39.05;99104.72;5112702;28;20020;-79
2021/05/26 06:19:00;;;;;;;1.75;1.40;;;;;;;26.29;39.72;99102.03;5112552;28;20023;-79
2021/05/26 06:21:26;;;;;;;1.42;1.33;;;;;;;26.39;38.69;99095.03;5112278;28;20024;-79
2021/05/26 06:23:51;;;;;;;6.38;1.73;;;;;;;26.36;38.44;99101.25;5112462;28;20019;-79
2021/05/26 06:26:17;;;;;;;4.15;1.77;;;;;;;26.49;38.54;99101.75;5111989;28;20208;-79
2021/05/26 06:28:42;;;;;;;2.17;1.35;;;;;;;26.51;38.28;99099.41;5112382;28;20026;-78
2021/05/26 06:31:08;;;;;;;2.55;1.50;;;;;;;26.52;38.45;99095.50;5111979;28;20029;-79
2021/05/26 06:33:33;;;;;;;3.45;1.55;;;;;;;26.56;38.58;99088.06;5112200;28;20023;-79
2021/05/26 06:35:58;;;;;;;2.05;1.08;;;;;;;26.70;38.33;99087.38;5113724;28;20130;-79
2021/05/26 06:38:24;;;;;;;3.17;1.20;;;;;;;26.79;38.93;99095.28;5111781;28;20028;-77
2021/05/26 06:40:49;;;;;;;2.72;1.55;;;;;;;26.80;38.34;99091.34;5112067;28;20023;-77
2021/05/26 06:43:15;;;;;;;4.97;1.20;;;;;;;26.85;38.50;99096.47;5111980;28;20011;-77
2021/05/26 06:45:40;;;;;;;2.95;1.52;;;;;;;26.90;38.27;99090.59;5113335;28;20034;-78
2021/05/26 06:48:06;;;;;;;1.60;1.50;;;;;;;26.99;38.78;99087.53;5111679;28;20020;-78
2021/05/26 06:50:31;;;;;;;1.85;1.60;;;;;;;26.92;38.64;99093.75;5111865;28;20027;-79
2021/05/26 06:52:57;;;;;;;2.13;1.70;;;;;;;26.80;39.10;99089.38;5111795;28;20487;-78
2021/05/26 06:55:22;;;;;;;3.53;1.75;;;;;;;26.81;39.11;99093.72;5111485;28;20156;-79
2021/05/26 06:57:48;;;;;;;2.10;1.90;;;;;;;26.72;38.69;99092.47;5111787;28;20016;-78
2021/05/26 07:00:14;;;;;;;4.75;2.72;;;;;;;26.74;39.75;99084.63;5111414;28;20024;-78
2021/05/26 07:02:39;;;;;;;5.93;2.38;;;;;;;26.83;39.66;99091.38;5112719;28;20023;-78
2021/05/26 07:05:05;;;;;;;2.38;1.40;;;;;;;26.82;39.10;99089.03;5111702;28;20032;-78
2021/05/26 07:07:31;;;;;;;2.65;1.52;;;;;;;26.79;39.82;99087.84;5111054;28;20024;-78
2021/05/26 07:09:56;;;;;;;2.08;1.88;;;;;;;26.73;40.16;99092.06;5111539;28;20031;-78
2021/05/26 07:12:22;;;;;;;2.20;1.95;;;;;;;26.62;40.15;99091.22;5111100;28;20030;-78
2021/05/26 07:14:49;;;;;;;2.17;2.03;;;;;;;26.54;40.26;99093.16;5111481;28;20024;-78
2021/05/26 07:17:14;;;;;;;2.00;1.85;;;;;;;26.53;41.81;99095.09;5111131;28;20060;-78
2021/05/26 07:19:40;;;;;;;2.45;2.08;;;;;;;26.37;41.65;99098.13;5111284;28;20020;-78
2021/05/26 07:22:05;;;;;;;2.38;2.17;;;;;;;26.31;42.58;99091.44;5111184;28;20015;-78
2021/05/26 07:24:30;;;;;;;2.40;2.20;;;;;;;26.17;42.56;99088.59;5110993;28;20027;-78
2021/05/26 07:26:56;;;;;;;4.75;2.35;;;;;;;26.04;42.96;99086.13;5112677;28;20051;-78
2021/05/26 07:29:21;;;;;;;2.40;2.20;;;;;;;25.99;43.54;99086.47;5110678;28;20447;-77
2021/05/26 07:31:47;;;;;;;3.25;2.95;;;;;;;25.83;44.07;99084.00;5112567;28;20019;-78
2021/05/26 07:34:12;;;;;;;4.53;3.67;;;;;;;25.69;44.59;99081.13;5111042;28;20031;-78
2021/05/26 07:36:37;;;;;;;3.88;3.05;;;;;;;25.61;45.14;99090.44;5111332;28;20050;-78
2021/05/26 07:39:05;;;;;;;4.80;3.70;;;;;;;25.54;45.43;99091.94;5111304;28;20524;-77
2021/05/26 07:41:30;;;;;;;6.35;3.65;;;;;;;25.44;45.46;99086.38;5113001;28;20032;-78
2021/05/26 07:43:56;;;;;;;4.65;4.25;;;;;;;25.38;46.46;99081.22;5117492;28;20032;-77
2021/05/26 07:46:21;;;;;;;3.88;3.58;;;;;;;25.37;46.84;99074.19;5110639;28;20059;-77
2021/05/26 07:48:48;;;;;;;4.05;3.42;;;;;;;25.44;46.40;99083.63;5111780;28;20019;-78
2021/05/26 07:51:16;;;;;;;5.07;4.10;;;;;;;25.41;46.59;99085.97;5113802;28;20016;-77
2021/05/26 07:53:42;;;;;;;5.63;4.18;;;;;;;25.44;46.98;99087.16;5114463;28;20024;-77
2021/05/26 07:56:08;;;;;;;4.65;3.72;;;;;;;25.40;47.01;99081.66;5112072;28;20403;-77
2021/05/26 07:58:33;;;;;;;4.32;3.75;;;;;;;25.42;46.42;99084.00;5111478;28;20023;-76
2021/05/26 08:00:59;;;;;;;4.40;3.97;;;;;;;25.42;46.98;99087.53;5112766;28;20039;-77
2021/05/26 08:03:25;;;;;;;6.22;3.25;;;;;;;25.47;46.77;99082.88;5110730;28;20031;-77
2021/05/26 08:05:51;;;;;;;3.95;3.53;;;;;;;25.47;46.77;99091.09;5111976;28;20030;-77
2021/05/26 08:08:16;;;;;;;4.18;2.92;;;;;;;25.44;46.73;99078.16;5110295;28;20015;-77
2021/05/26 08:10:42;;;;;;;6.30;3.10;;;;;;;25.38;47.47;99083.97;5111963;28;20455;-77
2021/05/26 08:13:09;;;;;;;6.32;3.20;;;;;;;25.36;47.15;99086.25;5112155;28;20027;-77
2021/05/26 08:15:35;;;;;;;4.03;3.30;;;;;;;25.36;47.22;99080.00;5110623;28;20432;-79
2021/05/26 08:18:01;;;;;;;6.35;2.75;;;;;;;25.38;47.60;99080.47;5110376;28;20390;-78
2021/05/26 08:20:27;;;;;;;3.67;3.38;;;;;;;25.33;47.61;99078.81;5110162;28;20023;-77
2021/05/26 08:22:53;;;;;;;6.22;2.72;;;;;;;25.34;48.72;99072.19;5110552;28;20030;-77
2021/05/26 08:25:18;;;;;;;4.50;3.38;;;;;;;25.36;47.89;99078.03;5111193;28;20024;-76
2021/05/26 08:27:44;;;;;;;5.30;3.88;;;;;;;25.31;48.98;99072.91;5111358;28;20578;-77
2021/05/26 08:30:10;;;;;;;3.25;3.05;;;;;;;25.39;47.99;99074.59;5111313;28;20076;-76
2021/05/26 08:32:35;;;;;;;3.97;3.30;;;;;;;25.47;47.70;99074.69;5110106;28;20015;-78
2021/05/26 08:35:01;;;;;;;3.88;3.58;;;;;;;25.50;47.59;99071.97;5111302;28;20034;-78
2021/05/26 08:37:26;;;;;;;3.97;3.67;;;;;;;25.51;47.66;99072.75;5109904;28;20458;-78
2021/05/26 08:39:52;;;;;;;4.45;4.15;;;;;;;25.54;48.11;99061.06;5110183;28;20023;-79
2021/05/26 08:42:18;;;;;;;7.25;4.10;;;;;;;25.58;49.55;99056.38;5109913;28;20169;-79
2021/05/26 08:44:44;;;;;;;4.88;3.88;;;;;;;25.71;48.88;99059.66;5109982;28;20114;-79
2021/05/26 08:47:18;;;;;;;4.05;3.78;;;;;;;25.75;47.37;99057.72;5110009;28;20035;-78
2021/05/26 08:49:45;;;;;;;4.30;3.90;;;;;;;25.81;47.30;99058.94;5110106;28;20069;-79
2021/05/26 08:52:11;;;;;;;5.05;4.68;;;;;;;25.86;48.18;99052.31;5110014;28;20031;-79
2021/05/26 08:54:38;;;;;;;4.25;3.85;;;;;;;25.91;48.82;99046.50;5109837;28;20027;-79
2021/05/26 08:57:04;;;;;;;4.57;4.18;;;;;;;26.00;48.28;99057.13;5110017;28;20019;-78
2021/05/26 08:59:30;;;;;;;5.75;4.80;;;;;;;25.99;47.64;99055.56;5111509;28;20042;-78
2021/05/26 09:01:56;;;;;;;5.40;4.43;;;;;;;26.03;48.69;99046.19;5111926;28;20027;-78
2021/05/26 09:04:48;;;;;;;4.07;3.78;;;;;;;26.14;48.94;99049.03;5114225;28;20024;-78
2021/05/26 09:07:19;;;;;;;6.40;4.70;;;;;;;26.22;47.97;99052.63;5109308;28;20035;-79
2021/05/26 09:09:59;;;;;;;4.75;4.13;;;;;;;26.27;47.61;99035.00;5113964;28;20351;-77
2021/05/26 09:12:32;;;;;;;5.85;3.97;;;;;;;26.35;47.48;99042.91;5113876;28;20386;-79
2021/05/26 09:15:17;;;;;;;6.20;4.38;;;;;;;26.42;47.37;99036.69;5113861;28;20028;-77
2021/05/26 09:17:48;;;;;;;7.18;4.32;;;;;;;26.50;48.22;99041.03;5113648;28;20023;-77
2021/05/26 09:20:26;;;;;;;4.93;4.20;;;;;;;26.59;47.42;99037.16;5113711;28;20028;-78
2021/05/26 09:23:20;;;;;;;5.38;4.72;;;;;;;26.64;47.63;99034.81;5113664;28;20020;-79
2021/05/26 09:25:48;;;;;;;7.40;4.97;;;;;;;26.65;47.12;99041.88;5113353;28;20122;-78
2021/05/26 09:28:35;;;;;;;9.07;5.95;;;;;;;26.44;46.32;99028.06;5114640;28;20367;-76
2021/05/26 09:31:05;;;;;;;6.60;5.47;;;;;;;26.36;46.66;99038.97;5113315;28;20031;-78
2021/05/26 09:33:32;;;;;;;6.75;6.15;;;;;;;26.25;46.72;99029.16;5114102;28;20023;-76
2021/05/26 09:36:36;;;;;;;9.15;5.97;;;;;;;26.26;47.76;99039.72;5114664;28;20045;-78
2021/05/26 09:39:04;;;;;;;8.77;6.15;;;;;;;26.18;47.35;99055.34;5014697;28;20033;-78
2021/05/26 09:41:32;;;;;;;6.78;5.30;;;;;;;26.09;47.45;99045.88;5031245;28;20072;-76
2021/05/26 09:44:09;;;;;;;5.95;5.35;;;;;;;25.96;47.91;99053.56;5072091;28;20127;-75
2021/05/26 09:46:39;;;;;;;8.03;6.00;;;;;;;25.92;48.31;99045.31;5114054;28;20119;-77
2021/05/26 09:49:16;;;;;;;7.15;5.80;;;;;;;25.85;49.15;99040.59;5113153;28;20054;-76
2021/05/26 09:51:51;;;;;;;6.65;6.05;;;;;;;25.87;48.15;99043.72;5113127;28;20386;-78
2021/05/26 09:54:32;;;;;;;10.20;5.95;;;;;;;25.89;48.48;99037.88;5114457;28;20504;-78
2021/05/26 09:57:03;;;;;;;10.80;7.43;;;;;;;25.88;48.56;99033.56;5114424;28;20016;-78
2021/05/26 09:59:30;;;;;;;12.68;7.50;;;;;;;25.89;49.03;99029.66;5112829;28;20030;-77
2021/05/26 10:01:56;;;;;;;11.85;8.07;;;;;;;25.90;48.61;99028.47;5114172;28;20020;-78
2021/05/26 10:04:23;;;;;;;10.60;6.25;;;;;;;25.89;48.76;99014.00;5112587;28;20031;-78
2021/05/26 10:06:55;;;;;;;12.75;5.65;;;;;;;25.98;48.69;99027.38;5114187;28;20011;-78
2021/05/26 10:09:23;;;;;;;9.63;5.72;;;;;;;26.07;49.45;99021.56;5112451;28;20474;-78
2021/05/26 10:12:00;;;;;;;7.68;5.53;;;;;;;26.01;48.93;99029.34;5112385;28;20107;-78
2021/05/26 10:14:27;;;;;;;8.27;6.90;;;;;;;26.01;48.44;99014.84;5112488;28;20020;-78
2021/05/26 10:16:56;;;;;;;11.85;6.20;;;;;;;26.02;49.89;99014.50;5114008;28;20031;-79
2021/05/26 10:19:24;;;;;;;7.50;6.47;;;;;;;26.07;49.26;99005.13;5114057;28;20485;-79
2021/05/26 10:21:50;;;;;;;9.05;6.80;;;;;;;26.10;48.93;99003.59;5112487;28;20467;-78
2021/05/26 10:24:17;;;;;;;8.60;7.80;;;;;;;26.16;49.16;99008.34;5112546;28;20034;-78
2021/05/26 10:29:30;;;;;;;8.73;6.85;;;;;;;26.18;49.06;99005.22;5113563;28;20027;-77
2021/05/26 10:32:07;;;;;;;8.95;7.38;;;;;;;26.13;49.03;99003.59;5113687;28;20094;-77
2021/05/26 10:34:41;;;;;;;13.55;7.85;;;;;;;26.18;49.56;98999.72;5112989;28;20466;-79
2021/05/26 10:37:08;;;;;;;7.68;6.50;;;;;;;26.18;49.09;98994.25;5112212;28;20489;-78
2021/05/26 10:39:34;;;;;;;6.82;5.63;;;;;;;26.20;49.16;99000.91;5111849;28;20049;-77
2021/05/26 10:42:01;;;;;;;6.25;5.65;;;;;;;26.21;49.37;98999.75;5113181;28;20051;-78
2021/05/26 10:45:04;;;;;;;7.40;6.70;;;;;;;26.19;49.10;98987.59;5111864;28;20024;-77
2021/05/26 10:47:36;;;;;;;6.72;5.65;;;;;;;26.16;49.34;98993.84;5113087;28;20620;-77
2021/05/26 10:50:15;;;;;;;10.30;6.88;;;;;;;26.17;49.67;98985.25;5113066;28;20592;-77
2021/05/26 10:52:56;;;;;;;8.45;6.05;;;;;;;26.13;48.73;98986.38;5112734;28;20532;-77
2021/05/26 10:55:44;;;;;;;7.05;6.07;;;;;;;26.12;48.35;98988.34;5112866;28;20035;-77
2021/05/26 10:58:17;;;;;;;5.90;4.53;;;;;;;26.15;48.95;98981.31;5111759;28;20024;-78
2021/05/26 11:01:03;;;;;;;5.53;5.05;;;;;;;26.16;49.26;98969.19;5112830;28;20450;-77
2021/05/26 11:03:31;;;;;;;5.50;4.75;;;;;;;26.12;49.33;98969.19;5097245;28;20028;-78
2021/05/26 11:06:01;;;;;;;;;;;;;;;26.12;49.34;98969.19;5113567;28;20466;-78
2021/05/26 11:08:27;;;;;;;7.15;4.95;;;;;;;26.14;48.75;98977.00;5110961;28;19907;-78
2021/05/26 11:10:53;;;;;;;6.22;5.40;;;;;;;26.14;48.56;98974.25;5111480;28;20118;-78
2021/05/26 11:13:18;;;;;;;5.47;4.95;;;;;;;26.14;48.04;98957.81;5112573;28;20019;-79
2021/05/26 11:15:45;;;;;;;6.35;4.57;;;;;;;26.21;48.08;98961.38;5111201;28;20027;-78
2021/05/26 11:18:37;;;;;;;6.68;5.15;;;;;;;26.28;47.92;98954.34;5111335;28;20019;-78
2021/05/26 11:21:01;;;;;;;6.00;5.15;;;;;;;26.29;48.09;98948.50;5111798;28;20039;-79
2021/05/26 11:23:27;;;;;;;5.72;4.88;;;;;;;26.36;48.76;98961.44;5112537;28;20477;-77
2021/05/26 11:25:57;;;;;;;5.15;4.68;;;;;;;26.38;47.54;98953.63;5110385;28;20039;-77
2021/05/26 11:28:30;;;;;;;7.25;5.80;;;;;;;26.36;47.83;98943.03;5110916;28;20051;-77
2021/05/26 11:31:02;;;;;;;5.93;5.35;;;;;;;26.44;48.14;98940.31;5110997;28;20020;-76
2021/05/26 11:33:28;;;;;;;5.22;4.75;;;;;;;26.47;47.66;98925.84;5110788;28;20134;-79
2021/05/26 11:35:58;;;;;;;8.02;4.90;;;;;;;26.46;47.89;98938.00;5111027;28;20027;-77
2021/05/26 11:38:25;;;;;;;5.95;5.35;;;;;;;26.49;47.88;98929.00;5110685;28;20057;-78